Time;durP1;ratioP1;P1;durP2;ratioP2;P2;SDS_P1;SDS_P2;PMS_P1;PMS_P2;Temp;Humidity;BMP_temperature;BMP_pressure;BME280_temperature;BME280_humidity;BME280_pressure;Samples;Min_cycle;Max_cycle;Signal;HPM_P1;HPM_P2
2023/09/11 00:00:36;;;;;;;16.92;5.40;;;16.90;99.90;;;;;;4192357;28;20473;-63
2023/09/11 00:02:37;;;;;;;6.22;3.90;;;16.90;99.90;;;;;;4194117;28;20070;-64
2023/09/11 00:04:38;;;;;;;5.85;4.20;;;16.80;99.90;;;;;;4192288;28;20082;-63
2023/09/11 00:06:39;;;;;;;6.40;5.18;;;16.70;99.90;;;;;;4194015;28;20036;-63
2023/09/11 00:08:40;;;;;;;9.23;5.28;;;16.70;99.90;;;;;;4193068;28;20040;-63
2023/09/11 00:10:41;;;;;;;8.13;5.15;;;16.70;99.90;;;;;;4193263;28;20033;-60
2023/09/11 00:12:42;;;;;;;6.50;5.00;;;16.60;99.90;;;;;;4194118;28;20423;-62
2023/09/11 00:14:43;;;;;;;6.80;4.68;;;16.60;99.90;;;;;;4193536;28;20036;-62
2023/09/11 00:16:44;;;;;;;11.32;4.90;;;16.60;99.90;;;;;;4193510;28;20451;-62
2023/09/11 00:18:45;;;;;;;9.48;4.78;;;16.50;99.90;;;;;;4191682;28;20086;-63
2023/09/11 00:20:46;;;;;;;8.00;5.05;;;16.50;99.90;;;;;;4194360;28;20037;-63
2023/09/11 00:22:48;;;;;;;8.57;5.53;;;16.40;99.90;;;;;;4193190;28;20577;-64
2023/09/11 00:24:50;;;;;;;7.78;5.28;;;16.30;99.90;;;;;;4193862;28;20102;-63
2023/09/11 00:26:51;;;;;;;8.30;4.57;;;16.20;99.90;;;;;;4158803;28;20587;-61
2023/09/11 00:28:52;;;;;;;8.75;5.70;;;16.10;99.90;;;;;;4187009;28;20136;-62
2023/09/11 00:31:00;;;;;;;7.90;5.47;;;16.10;99.90;;;;;;4174124;28;20036;-63
2023/09/11 00:33:02;;;;;;;5.97;5.32;;;16.10;99.90;;;;;;4166094;28;20152;-64
2023/09/11 00:35:03;;;;;;;6.25;4.97;;;16.10;99.90;;;;;;4186327;28;20082;-62
2023/09/11 00:37:04;;;;;;;7.45;5.10;;;16.00;99.90;;;;;;4193345;28;20025;-63
2023/09/11 00:39:05;;;;;;;8.00;5.55;;;16.00;99.90;;;;;;4192150;28;20048;-63
2023/09/11 00:41:06;;;;;;;8.02;5.55;;;16.00;99.90;;;;;;4192616;28;20468;-62
2023/09/11 00:43:07;;;;;;;7.88;5.60;;;16.00;99.90;;;;;;4192711;28;20051;-64
2023/09/11 00:45:10;;;;;;;8.30;5.03;;;15.90;99.90;;;;;;4191934;28;20040;-61
2023/09/11 00:47:11;;;;;;;5.97;4.93;;;15.90;99.90;;;;;;4192311;28;20709;-63
2023/09/11 00:49:12;;;;;;;12.75;5.22;;;15.90;99.90;;;;;;4191565;28;20037;-62
2023/09/11 00:51:14;;;;;;;9.80;5.13;;;15.90;99.90;;;;;;4193419;28;20165;-63
2023/09/11 00:53:16;;;;;;;9.00;5.63;;;15.90;99.90;;;;;;4192167;28;20028;-64
2023/09/11 00:55:19;;;;;;;10.27;6.45;;;15.80;99.90;;;;;;4194575;28;20037;-63
2023/09/11 00:57:21;;;;;;;12.00;7.05;;;15.70;99.90;;;;;;4192473;28;20086;-62
2023/09/11 00:59:23;;;;;;;8.02;6.00;;;15.60;99.90;;;;;;4193188;28;20040;-62
2023/09/11 01:01:25;;;;;;;9.38;6.18;;;15.60;99.90;;;;;;4192087;28;20485;-64
2023/09/11 01:03:27;;;;;;;9.18;5.20;;;15.60;99.90;;;;;;4192998;28;20078;-64
2023/09/11 01:05:29;;;;;;;6.57;5.32;;;15.60;99.90;;;;;;4192668;28;20048;-63
2023/09/11 01:07:31;;;;;;;6.97;5.03;;;15.60;99.90;;;;;;4193749;28;20124;-63
2023/09/11 01:09:33;;;;;;;5.25;4.70;;;15.60;99.90;;;;;;4192236;28;20041;-63
2023/09/11 01:11:34;;;;;;;7.45;5.22;;;15.60;99.90;;;;;;4193381;28;20052;-62
2023/09/11 01:13:35;;;;;;;9.10;5.40;;;15.50;99.90;;;;;;4192350;28;20094;-63
2023/09/11 01:16:05;;;;;;;7.72;5.90;;;15.50;99.90;;;;;;4192072;28;20040;-63
2023/09/11 01:18:31;;;;;;;7.97;7.18;;;15.50;99.90;;;;;;4192781;28;20542;-62
2023/09/11 01:20:44;;;;;;;14.30;7.82;;;15.40;99.90;;;;;;4193625;28;20036;-63
2023/09/11 01:22:57;;;;;;;8.70;5.80;;;15.30;99.90;;;;;;4192578;28;20032;-63
2023/09/11 01:25:28;;;;;;;7.28;5.47;;;15.30;99.90;;;;;;4193157;28;20056;-62
2023/09/11 01:27:56;;;;;;;6.50;5.70;;;15.20;99.90;;;;;;4165207;28;20049;-62
2023/09/11 01:29:59;;;;;;;8.27;5.72;;;15.20;99.90;;;;;;4188028;28;20040;-62
2023/09/11 01:32:05;;;;;;;7.30;5.88;;;15.10;99.90;;;;;;4192721;28;20534;-63
2023/09/11 01:34:07;;;;;;;10.35;6.43;;;15.00;99.90;;;;;;4193284;28;20032;-61
2023/09/11 01:36:08;;;;;;;9.65;5.45;;;15.00;99.90;;;;;;4191764;28;20078;-63
2023/09/11 01:38:10;;;;;;;9.18;5.57;;;15.00;99.90;;;;;;4193554;28;20503;-61
2023/09/11 01:40:11;;;;;;;8.13;5.63;;;15.10;99.90;;;;;;4191216;28;20036;-64
2023/09/11 01:42:18;;;;;;;7.70;5.13;;;15.00;99.90;;;;;;4194630;28;20427;-61
2023/09/11 01:44:37;;;;;;;6.80;4.57;;;15.00;99.90;;;;;;4195618;28;20032;-63
2023/09/11 01:46:39;;;;;;;6.70;4.70;;;15.00;99.90;;;;;;4196733;28;20028;-63
2023/09/11 01:48:42;;;;;;;6.43;4.72;;;15.00;99.90;;;;;;4193934;28;20044;-63
2023/09/11 01:50:43;;;;;;;6.80;4.72;;;15.00;99.90;;;;;;4195326;28;20129;-63
2023/09/11 01:52:48;;;;;;;7.82;5.03;;;15.10;99.90;;;;;;4196094;28;20037;-63
2023/09/11 01:54:50;;;;;;;7.72;4.82;;;15.00;99.90;;;;;;4196000;28;20040;-64
2023/09/11 01:56:51;;;;;;;8.13;5.20;;;15.00;99.90;;;;;;4195796;28;20040;-62
2023/09/11 01:58:56;;;;;;;5.70;4.25;;;14.90;99.90;;;;;;4195160;28;20159;-64
2023/09/11 02:00:57;;;;;;;6.30;5.00;;;14.90;99.90;;;;;;4195804;28;20097;-63
2023/09/11 02:02:58;;;;;;;7.63;4.75;;;14.90;99.90;;;;;;4195401;28;20036;-63
2023/09/11 02:05:00;;;;;;;9.48;4.57;;;14.80;99.90;;;;;;4196646;28;20086;-63
2023/09/11 02:07:02;;;;;;;9.20;4.57;;;14.80;99.90;;;;;;4194986;28;20602;-63
2023/09/11 02:09:04;;;;;;;7.00;5.07;;;14.70;99.90;;;;;;4196573;28;20464;-63
2023/09/11 02:11:07;;;;;;;6.00;4.60;;;14.80;99.90;;;;;;4194795;28;20102;-64
2023/09/11 02:13:08;;;;;;;11.00;5.13;;;14.70;99.90;;;;;;4195588;28;20064;-63
2023/09/11 02:15:09;;;;;;;6.40;5.15;;;14.70;99.90;;;;;;4194668;28;20082;-61
2023/09/11 02:17:10;;;;;;;8.00;5.68;;;14.60;99.90;;;;;;4195698;28;20032;-62
2023/09/11 02:19:12;;;;;;;9.55;5.40;;;14.60;99.90;;;;;;4194275;28;20040;-62
2023/09/11 02:21:13;;;;;;;6.25;5.13;;;14.60;99.90;;;;;;4196301;28;20391;-65
2023/09/11 02:23:15;;;;;;;8.40;5.30;;;14.50;99.90;;;;;;4194348;28;20032;-62
2023/09/11 02:25:17;;;;;;;8.98;4.97;;;14.50;99.90;;;;;;4195872;28;20266;-65
2023/09/11 02:27:18;;;;;;;7.22;5.30;;;14.50;99.90;;;;;;4195241;28;20486;-63
2023/09/11 02:29:19;;;;;;;8.15;5.45;;;14.50;99.90;;;;;;4194775;28;20542;-64
2023/09/11 02:31:20;;;;;;;8.70;5.20;;;14.50;99.90;;;;;;4173431;28;20402;-63
2023/09/11 02:33:21;;;;;;;11.75;5.68;;;14.50;99.90;;;;;;4195129;28;20046;-63
2023/09/11 02:35:22;;;;;;;10.75;6.88;;;14.40;99.90;;;;;;4196145;28;20090;-64
2023/09/11 02:37:23;;;;;;;10.50;5.45;;;14.40;99.90;;;;;;4194255;28;20669;-63
2023/09/11 02:39:25;;;;;;;11.18;5.72;;;14.40;99.90;;;;;;4194632;28;20036;-63
2023/09/11 02:41:26;;;;;;;9.65;6.38;;;14.40;99.90;;;;;;4194709;28;20106;-65
2023/09/11 02:43:27;;;;;;;8.38;6.00;;;14.40;99.90;;;;;;4195070;28;20048;-64
2023/09/11 02:45:28;;;;;;;9.18;6.07;;;14.30;99.90;;;;;;4194444;28;20494;-63
2023/09/11 02:47:29;;;;;;;10.90;6.22;;;14.30;99.90;;;;;;4195316;28;20028;-63
2023/09/11 02:49:30;;;;;;;10.60;6.13;;;14.40;99.90;;;;;;4194551;28;20530;-64
2023/09/11 02:51:32;;;;;;;9.40;6.03;;;14.40;99.90;;;;;;4195320;28;20028;-64
2023/09/11 02:53:33;;;;;;;8.95;5.15;;;14.30;99.90;;;;;;4192309;28;20041;-63
2023/09/11 02:55:37;;;;;;;7.53;4.97;;;14.30;99.90;;;;;;4195884;28;20044;-65
2023/09/11 02:57:38;;;;;;;8.70;5.50;;;14.20;99.90;;;;;;4193957;28;20431;-64
2023/09/11 02:59:39;;;;;;;8.35;5.20;;;14.20;99.90;;;;;;4195026;28;20362;-62
2023/09/11 03:01:40;;;;;;;9.48;5.18;;;14.10;99.90;;;;;;4194251;28;20048;-64
2023/09/11 03:03:41;;;;;;;10.30;5.47;;;14.00;99.90;;;;;;4194443;28;20114;-64
2023/09/11 03:05:43;;;;;;;7.78;5.35;;;13.90;99.90;;;;;;4194724;28;20037;-65
2023/09/11 03:07:44;;;;;;;8.27;4.97;;;13.80;99.90;;;;;;4193599;28;20044;-63
2023/09/11 03:09:45;;;;;;;9.23;6.13;;;13.70;99.90;;;;;;4195368;28;20388;-66
2023/09/11 03:11:46;;;;;;;10.80;5.73;;;13.60;99.90;;;;;;4194224;28;20042;-64
2023/09/11 03:13:49;;;;;;;7.97;6.03;;;13.60;99.90;;;;;;4194879;28;20086;-65
2023/09/11 03:15:50;;;;;;;8.70;5.90;;;13.60;99.90;;;;;;4193903;28;20093;-65
2023/09/11 03:17:51;;;;;;;8.60;6.13;;;13.60;99.90;;;;;;4194146;28;20037;-63
2023/09/11 03:19:52;;;;;;;10.00;6.33;;;13.60;99.90;;;;;;4194307;28;20024;-64
2023/09/11 03:21:56;;;;;;;12.13;6.07;;;13.60;99.90;;;;;;4194518;28;20040;-65
2023/09/11 03:23:57;;;;;;;10.13;6.57;;;13.60;99.90;;;;;;4193219;28;20126;-63
2023/09/11 03:25:58;;;;;;;11.40;6.97;;;13.60;99.90;;;;;;4195001;28;20066;-63
2023/09/11 03:28:00;;;;;;;15.23;7.00;;;13.60;99.90;;;;;;4193351;28;20091;-62
2023/09/11 03:30:01;;;;;;;10.13;6.23;;;13.60;99.90;;;;;;4194492;28;20054;-64
2023/09/11 03:32:02;;;;;;;8.63;6.13;;;13.60;99.90;;;;;;4193285;28;20044;-63
2023/09/11 03:34:03;;;;;;;9.10;5.87;;;13.70;99.90;;;;;;4193691;28;20453;-64
2023/09/11 03:36:04;;;;;;;14.80;7.00;;;13.70;99.90;;;;;;4194750;28;20427;-64
2023/09/11 03:38:06;;;;;;;8.53;6.30;;;13.70;99.90;;;;;;4193314;28;20078;-63
2023/09/11 03:40:07;;;;;;;10.03;7.27;;;13.70;99.90;;;;;;4193420;28;20032;-62
2023/09/11 03:42:08;;;;;;;11.07;6.67;;;13.80;99.90;;;;;;4194533;28;20040;-65
2023/09/11 03:44:10;;;;;;;9.97;6.60;;;13.80;99.90;;;;;;4194540;28;20076;-64
2023/09/11 03:46:14;;;;;;;10.07;6.87;;;13.80;99.90;;;;;;4193595;28;20028;-63
2023/09/11 03:48:15;;;;;;;8.60;6.20;;;13.80;99.90;;;;;;4193882;28;20090;-64
2023/09/11 03:50:16;;;;;;;10.55;6.97;;;13.80;99.90;;;;;;4193827;28;20024;-63
2023/09/11 03:52:17;;;;;;;10.15;7.43;;;13.80;99.90;;;;;;4193975;28;20106;-63
2023/09/11 03:54:18;;;;;;;14.97;8.53;;;13.70;99.90;;;;;;4193610;28;20064;-63
2023/09/11 03:56:20;;;;;;;18.40;10.35;;;13.70;99.90;;;;;;4194005;28;20036;-63
2023/09/11 03:58:21;;;;;;;11.23;7.60;;;13.50;99.90;;;;;;4192919;28;20040;-63
2023/09/11 04:00:22;;;;;;;13.97;8.03;;;13.50;99.90;;;;;;4194309;28;20032;-65
2023/09/11 04:02:23;;;;;;;13.90;7.50;;;13.40;99.90;;;;;;4194108;28;20074;-64
2023/09/11 04:04:24;;;;;;;12.50;7.87;;;13.40;99.90;;;;;;4191630;28;20045;-65
2023/09/11 04:06:25;;;;;;;10.30;7.05;;;13.30;99.90;;;;;;4194266;28;20443;-63
2023/09/11 04:08:28;;;;;;;15.00;8.70;;;13.40;99.90;;;;;;4192956;28;20544;-64
2023/09/11 04:10:29;;;;;;;14.67;8.07;;;13.40;99.90;;;;;;4194317;28;20143;-62
2023/09/11 04:12:30;;;;;;;11.60;7.60;;;13.40;99.90;;;;;;4192256;28;20110;-64
2023/09/11 04:14:31;;;;;;;12.50;7.37;;;13.50;99.90;;;;;;4193433;28;20527;-65
2023/09/11 04:16:33;;;;;;;9.47;7.03;;;13.60;99.90;;;;;;4192443;28;20561;-63
2023/09/11 04:18:34;;;;;;;10.83;6.90;;;13.60;99.90;;;;;;4194009;28;20029;-64
2023/09/11 04:20:35;;;;;;;15.90;7.00;;;13.70;99.90;;;;;;4192312;28;20036;-64
2023/09/11 04:22:36;;;;;;;11.00;7.70;;;13.90;99.90;;;;;;4193574;28;20029;-62
2023/09/11 04:24:37;;;;;;;11.57;8.13;;;14.00;99.90;;;;;;4192385;28;20037;-65
2023/09/11 04:26:40;;;;;;;16.02;7.45;;;14.20;99.90;;;;;;4194140;28;20063;-64
2023/09/11 04:28:41;;;;;;;14.30;7.65;;;14.40;99.90;;;;;;4182176;28;20029;-64
2023/09/11 04:30:42;;;;;;;12.32;6.85;;;14.50;99.90;;;;;;4177505;28;20090;-64
2023/09/11 04:32:44;;;;;;;8.90;6.93;;;14.70;99.90;;;;;;4176772;28;20497;-64
2023/09/11 04:34:45;;;;;;;10.18;6.82;;;14.90;99.90;;;;;;4193112;28;20033;-62
2023/09/11 04:36:46;;;;;;;25.13;7.35;;;15.10;99.90;;;;;;4193861;28;20016;-64
2023/09/11 04:38:47;;;;;;;12.82;7.07;;;15.30;99.90;;;;;;4192783;28;20020;-65
2023/09/11 04:40:56;;;;;;;12.77;7.35;;;15.50;99.90;;;;;;4193645;28;20044;-64
2023/09/11 04:42:58;;;;;;;12.25;7.25;;;15.80;99.90;;;;;;4192800;28;20070;-63
2023/09/11 04:44:59;;;;;;;10.65;6.45;;;16.20;99.90;;;;;;4193692;28;20078;-63
2023/09/11 04:47:00;;;;;;;12.63;7.25;;;16.50;99.90;;;;;;4190831;28;20764;-63
2023/09/11 04:49:01;;;;;;;8.38;6.35;;;16.80;99.90;;;;;;4194206;28;20518;-65
2023/09/11 04:51:02;;;;;;;11.85;7.05;;;17.10;99.90;;;;;;4193736;28;20477;-68
2023/09/11 04:53:04;;;;;;;13.43;7.32;;;17.40;99.90;;;;;;4192859;28;20106;-62
2023/09/11 04:55:06;;;;;;;11.50;7.15;;;17.60;99.90;;;;;;4191809;28;20029;-65
2023/09/11 04:57:07;;;;;;;16.95;7.05;;;17.80;99.90;;;;;;4192569;28;20040;-62
2023/09/11 04:59:09;;;;;;;15.95;7.38;;;18.00;99.90;;;;;;4191954;28;20082;-62
2023/09/11 05:01:11;;;;;;;10.85;6.53;;;18.30;99.90;;;;;;4193849;28;20017;-65
2023/09/11 05:03:12;;;;;;;10.70;6.72;;;18.50;99.90;;;;;;4192829;28;20093;-64
2023/09/11 05:05:13;;;;;;;17.13;7.18;;;18.80;99.90;;;;;;4192847;28;20493;-64
2023/09/11 05:07:14;;;;;;;16.65;7.20;;;18.90;99.90;;;;;;4192674;28;20037;-65
2023/09/11 05:09:16;;;;;;;13.32;6.35;;;19.40;99.90;;;;;;4193211;28;20504;-65
2023/09/11 05:11:17;;;;;;;12.27;5.70;;;19.60;99.90;;;;;;4193378;28;20040;-63
2023/09/11 05:13:18;;;;;;;10.23;5.95;;;20.10;99.90;;;;;;4192729;28;20033;-63
2023/09/11 05:15:19;;;;;;;9.25;5.40;;;20.40;99.90;;;;;;4194307;28;20074;-64
2023/09/11 05:17:20;;;;;;;14.00;5.85;;;20.70;99.90;;;;;;4195641;28;20037;-64
2023/09/11 05:19:22;;;;;;;12.38;5.70;;;20.90;99.90;;;;;;4197010;28;20538;-64
2023/09/11 05:21:23;;;;;;;18.98;6.07;;;21.10;99.90;;;;;;4195995;28;20094;-62
2023/09/11 05:23:24;;;;;;;11.35;6.00;;;21.40;99.90;;;;;;4197276;28;20033;-64
2023/09/11 05:25:25;;;;;;;9.82;6.70;;;21.60;99.90;;;;;;4196303;28;20036;-64
2023/09/11 05:27:28;;;;;;;10.32;5.93;;;22.00;99.90;;;;;;4197266;28;20024;-65
2023/09/11 05:29:29;;;;;;;14.52;6.43;;;22.30;99.90;;;;;;4196081;28;20090;-62
2023/09/11 05:31:30;;;;;;;10.00;5.93;;;22.40;99.90;;;;;;4179213;28;20079;-64
2023/09/11 05:33:32;;;;;;;14.60;6.07;;;22.80;99.90;;;;;;4195695;28;20194;-64
2023/09/11 05:35:33;;;;;;;12.50;6.40;;;22.70;99.90;;;;;;4178128;28;20033;-64
2023/09/11 05:37:34;;;;;;;17.52;7.07;;;22.50;99.90;;;;;;4195331;28;20052;-64
2023/09/11 05:39:35;;;;;;;22.33;7.72;;;21.90;99.90;;;;;;4195248;28;20033;-64
2023/09/11 05:41:36;;;;;;;18.33;7.03;;;21.70;99.90;;;;;;4196486;28;20032;-65
2023/09/11 05:43:39;;;;;;;10.93;6.60;;;21.50;99.90;;;;;;4194872;28;20045;-64
2023/09/11 05:45:41;;;;;;;12.02;6.80;;;21.30;99.90;;;;;;4196080;28;20040;-63
2023/09/11 05:47:42;;;;;;;14.00;6.78;;;21.60;99.90;;;;;;4195537;28;20036;-64
2023/09/11 05:49:43;;;;;;;17.83;7.60;;;22.00;99.90;;;;;;4196017;28;20086;-63
2023/09/11 05:51:45;;;;;;;12.73;6.40;;;22.20;99.90;;;;;;4195588;28;20453;-63
2023/09/11 05:53:46;;;;;;;11.50;6.72;;;22.40;99.90;;;;;;4195810;28;20040;-64
2023/09/11 05:55:47;;;;;;;13.60;7.82;;;22.60;99.90;;;;;;4194847;28;20036;-63
2023/09/11 05:57:48;;;;;;;14.85;6.78;;;22.80;99.90;;;;;;4197057;28;20032;-65
2023/09/11 05:59:49;;;;;;;19.52;7.47;;;22.70;99.90;;;;;;4194699;28;20032;-64
2023/09/11 06:01:51;;;;;;;23.17;8.88;;;22.60;99.90;;;;;;4196401;28;20028;-64
2023/09/11 06:03:52;;;;;;;13.88;7.95;;;22.60;99.90;;;;;;4194431;28;20037;-63
2023/09/11 06:05:55;;;;;;;14.48;7.10;;;22.40;99.90;;;;;;4196150;28;20101;-64
2023/09/11 06:07:56;;;;;;;14.93;6.30;;;22.40;99.90;;;;;;4195643;28;20021;-63
2023/09/11 06:09:57;;;;;;;12.05;7.45;;;22.60;99.90;;;;;;4195753;28;20020;-63
2023/09/11 06:11:58;;;;;;;10.93;7.03;;;23.00;99.90;;;;;;4195128;28;20070;-62
2023/09/11 06:14:00;;;;;;;19.80;7.18;;;23.20;99.90;;;;;;4194901;28;20052;-61
2023/09/11 06:16:01;;;;;;;12.85;7.45;;;23.90;99.90;;;;;;4196309;28;20078;-62
2023/09/11 06:18:03;;;;;;;15.40;7.95;;;24.50;99.90;;;;;;4195064;28;20040;-60
2023/09/11 06:20:09;;;;;;;12.68;6.95;;;24.90;99.90;;;;;;4195072;28;20041;-64
2023/09/11 06:22:10;;;;;;;16.77;6.93;;;25.40;99.90;;;;;;4194415;28;20044;-64
2023/09/11 06:24:12;;;;;;;9.30;6.25;;;25.60;99.90;;;;;;4195925;28;20040;-63
2023/09/11 06:26:13;;;;;;;14.63;6.40;;;25.70;99.90;;;;;;4195505;28;20525;-64
2023/09/11 06:28:14;;;;;;;16.42;6.43;;;25.80;99.80;;;;;;4195204;28;20461;-63
2023/09/11 06:30:16;;;;;;;19.80;7.28;;;26.00;99.50;;;;;;4194959;28;20025;-64
2023/09/11 06:32:17;;;;;;;20.23;7.07;;;26.00;99.30;;;;;;4196463;28;20078;-65
2023/09/11 06:34:18;;;;;;;21.58;7.70;;;26.00;99.00;;;;;;4194920;28;20041;-64
2023/09/11 06:36:19;;;;;;;18.45;7.15;;;25.50;99.60;;;;;;4195785;28;20025;-65
2023/09/11 06:38:21;;;;;;;14.20;7.05;;;24.60;99.90;;;;;;4194090;28;20106;-64
2023/09/11 06:40:22;;;;;;;19.02;7.03;;;23.80;99.90;;;;;;4195627;28;20028;-64
2023/09/11 06:42:25;;;;;;;17.30;6.55;;;23.20;99.90;;;;;;4194743;28;20528;-62
2023/09/11 06:44:26;;;;;;;10.00;6.50;;;22.90;99.90;;;;;;4194304;28;20045;-64
2023/09/11 06:46:27;;;;;;;20.70;7.22;;;22.90;99.90;;;;;;4194929;28;20036;-59
2023/09/11 06:48:28;;;;;;;17.88;7.00;;;22.90;99.90;;;;;;4194619;28;20126;-63
2023/09/11 06:50:29;;;;;;;9.88;5.82;;;22.80;99.90;;;;;;4195073;28;20040;-61
2023/09/11 06:52:38;;;;;;;20.75;7.18;;;22.90;99.90;;;;;;4193607;28;20044;-60
2023/09/11 06:54:39;;;;;;;14.13;6.90;;;23.50;99.90;;;;;;4194904;28;20040;-65
2023/09/11 06:56:40;;;;;;;16.63;5.53;;;23.90;99.90;;;;;;4193384;28;20036;-61
2023/09/11 06:58:42;;;;;;;10.68;5.65;;;24.10;99.90;;;;;;4194579;28;20400;-63
2023/09/11 07:00:43;;;;;;;16.70;6.28;;;24.70;99.90;;;;;;4193307;28;20037;-61
2023/09/11 07:02:48;;;;;;;13.32;5.25;;;25.30;99.90;;;;;;4193951;28;20052;-63
2023/09/11 07:04:49;;;;;;;10.70;5.80;;;26.00;99.90;;;;;;4192326;28;20480;-63
2023/09/11 07:06:51;;;;;;;9.93;5.82;;;26.50;99.30;;;;;;4186205;28;20101;-66
2023/09/11 07:08:52;;;;;;;14.25;5.95;;;26.30;98.90;;;;;;4187869;28;20117;-65
2023/09/11 07:10:55;;;;;;;10.38;5.10;;;26.30;99.10;;;;;;4189288;28;20029;-64
2023/09/11 07:12:56;;;;;;;13.75;5.30;;;26.40;98.90;;;;;;4187893;28;20157;-63
2023/09/11 07:14:57;;;;;;;15.60;5.10;;;26.40;98.80;;;;;;4187136;28;21479;-62
2023/09/11 07:17:02;;;;;;;11.20;5.63;;;26.40;98.80;;;;;;4189542;28;20024;-61
2023/09/11 07:19:03;;;;;;;13.65;5.95;;;26.40;98.50;;;;;;4187040;28;20036;-62
2023/09/11 07:21:04;;;;;;;12.30;5.80;;;25.60;99.00;;;;;;4189177;28;20081;-65
2023/09/11 07:23:05;;;;;;;15.48;6.15;;;25.00;99.50;;;;;;4193145;28;20070;-63
2023/09/11 07:25:12;;;;;;;12.98;5.30;;;24.50;99.90;;;;;;4194310;28;20024;-64
2023/09/11 07:27:13;;;;;;;12.55;5.47;;;24.30;99.90;;;;;;4193989;28;20049;-65
2023/09/11 07:29:14;;;;;;;11.70;5.00;;;24.20;99.90;;;;;;4195312;28;20067;-63
2023/09/11 07:31:15;;;;;;;9.35;5.50;;;24.30;99.90;;;;;;4193272;28;20561;-65
2023/09/11 07:33:19;;;;;;;12.13;5.85;;;24.20;99.90;;;;;;4176784;28;20051;-65
2023/09/11 07:35:20;;;;;;;13.13;5.10;;;24.20;99.90;;;;;;4193057;28;20040;-62
2023/09/11 07:37:22;;;;;;;15.98;5.13;;;24.20;99.90;;;;;;4195304;28;20075;-61
2023/09/11 07:39:23;;;;;;;17.55;4.57;;;24.20;99.90;;;;;;4193893;28;20086;-63
2023/09/11 07:41:24;;;;;;;6.68;4.88;;;24.30;99.90;;;;;;4194246;28;20429;-62
2023/09/11 07:43:25;;;;;;;11.07;4.60;;;24.50;99.90;;;;;;4193396;28;20036;-60
2023/09/11 07:45:27;;;;;;;13.60;4.78;;;24.60;99.90;;;;;;4194616;28;20025;-65
2023/09/11 07:47:28;;;;;;;12.00;5.18;;;24.60;99.90;;;;;;4193594;28;20105;-62
2023/09/11 07:49:29;;;;;;;13.52;4.47;;;24.60;99.90;;;;;;4192877;28;20028;-64
2023/09/11 07:51:30;;;;;;;14.23;4.80;;;24.20;99.90;;;;;;4193616;28;20052;-62
2023/09/11 07:53:31;;;;;;;10.23;4.10;;;24.10;99.90;;;;;;4191114;28;20052;-64
2023/09/11 07:55:37;;;;;;;9.32;4.60;;;24.00;99.90;;;;;;4193621;28;20040;-61
2023/09/11 07:57:40;;;;;;;12.50;4.85;;;23.90;99.90;;;;;;4192246;28;20049;-64
2023/09/11 07:59:41;;;;;;;9.02;5.38;;;23.80;99.90;;;;;;4194267;28;20139;-62
2023/09/11 08:01:42;;;;;;;8.13;4.22;;;23.70;99.90;;;;;;4193167;28;20036;-61
2023/09/11 08:03:44;;;;;;;12.98;4.88;;;24.00;99.90;;;;;;4192612;28;20052;-63
2023/09/11 08:05:45;;;;;;;12.55;5.30;;;24.20;99.90;;;;;;4192675;28;20434;-61
2023/09/11 08:07:47;;;;;;;5.30;3.88;;;24.50;99.90;;;;;;4194193;28;20058;-62
2023/09/11 08:09:48;;;;;;;6.47;4.22;;;24.80;99.90;;;;;;4192356;28;20086;-63
2023/09/11 08:11:50;;;;;;;9.98;4.07;;;25.20;99.80;;;;;;4193533;28;20876;-64
2023/09/11 08:13:51;;;;;;;4.72;3.88;;;25.50;99.50;;;;;;4192500;28;20052;-65
2023/09/11 08:15:53;;;;;;;8.48;4.60;;;25.80;99.20;;;;;;4193339;28;20094;-61
2023/09/11 08:17:54;;;;;;;8.02;4.22;;;25.90;99.00;;;;;;4192184;28;20032;-64
2023/09/11 08:19:55;;;;;;;9.73;4.72;;;25.80;99.00;;;;;;4175935;28;20029;-66
2023/09/11 08:21:56;;;;;;;11.52;5.20;;;25.70;98.90;;;;;;4193599;28;20036;-64
2023/09/11 08:23:57;;;;;;;14.48;5.25;;;25.80;98.90;;;;;;4192291;28;20032;-64
2023/09/11 08:26:01;;;;;;;15.68;6.53;;;25.60;99.00;;;;;;4193866;28;20468;-65
2023/09/11 08:28:02;;;;;;;10.55;5.63;;;25.40;99.20;;;;;;4192580;28;20037;-61
2023/09/11 08:30:07;;;;;;;15.85;5.93;;;25.00;99.60;;;;;;4194401;28;20086;-65
2023/09/11 08:32:08;;;;;;;14.52;5.45;;;25.20;99.70;;;;;;4191703;28;20086;-63
2023/09/11 08:34:09;;;;;;;14.65;5.47;;;25.40;99.50;;;;;;4193754;28;20427;-65
2023/09/11 08:36:10;;;;;;;15.23;5.03;;;25.90;99.40;;;;;;4191367;28;20033;-63
2023/09/11 08:38:12;;;;;;;12.13;5.57;;;26.20;99.10;;;;;;4193171;28;20109;-62
2023/09/11 08:40:13;;;;;;;8.40;4.80;;;26.30;98.70;;;;;;4192157;28;20036;-62
2023/09/11 08:42:14;;;;;;;13.23;6.10;;;26.30;98.60;;;;;;4194253;28;20089;-62
2023/09/11 08:44:15;;;;;;;9.55;4.95;;;26.30;98.60;;;;;;4192083;28;20021;-63
2023/09/11 08:46:17;;;;;;;11.07;5.35;;;26.10;98.70;;;;;;4193865;28;20078;-64
2023/09/11 08:48:26;;;;;;;14.00;4.55;;;25.90;98.80;;;;;;4192854;28;20070;-63
2023/09/11 08:50:32;;;;;;;7.93;4.47;;;25.90;98.90;;;;;;4192713;28;20029;-61
2023/09/11 08:52:35;;;;;;;5.55;4.78;;;25.70;99.00;;;;;;4192590;28;20121;-62
2023/09/11 08:54:40;;;;;;;13.45;5.43;;;25.50;99.30;;;;;;4192457;28;20094;-62
2023/09/11 08:56:42;;;;;;;10.15;4.75;;;25.50;99.50;;;;;;4192901;28;20028;-65
2023/09/11 08:58:43;;;;;;;11.80;4.90;;;25.60;99.40;;;;;;4193266;28;20041;-63
2023/09/11 09:00:45;;;;;;;10.82;4.72;;;25.60;99.30;;;;;;4193531;28;20390;-62
2023/09/11 09:02:47;;;;;;;12.05;5.25;;;25.40;99.50;;;;;;4191876;28;20099;-64
2023/09/11 09:04:49;;;;;;;7.88;4.20;;;25.60;99.40;;;;;;4193163;28;20044;-62
2023/09/11 09:06:51;;;;;;;8.02;4.60;;;25.90;99.30;;;;;;4193336;28;20086;-62
2023/09/11 09:08:53;;;;;;;8.93;4.05;;;26.00;99.00;;;;;;4194404;28;20024;-65
2023/09/11 09:10:54;;;;;;;8.10;4.28;;;26.10;98.90;;;;;;4192991;28;20050;-63
2023/09/11 09:12:56;;;;;;;7.57;4.43;;;26.10;98.80;;;;;;4193643;28;20834;-63
2023/09/11 09:14:58;;;;;;;12.27;4.95;;;26.20;98.70;;;;;;4192104;28;20082;-62
2023/09/11 09:16:59;;;;;;;8.23;4.53;;;26.30;98.60;;;;;;4193124;28;20041;-63
2023/09/11 09:19:00;;;;;;;7.97;4.25;;;26.10;98.60;;;;;;4191913;28;20050;-65
2023/09/11 09:21:04;;;;;;;12.57;4.90;;;25.80;98.80;;;;;;4193686;28;20534;-65
2023/09/11 09:23:06;;;;;;;11.68;4.78;;;25.80;99.10;;;;;;4192063;28;20028;-64
2023/09/11 09:25:07;;;;;;;6.38;3.75;;;25.80;99.10;;;;;;4193235;28;20033;-63
2023/09/11 09:27:08;;;;;;;6.70;3.80;;;26.00;99.10;;;;;;4192400;28;20017;-64
2023/09/11 09:29:11;;;;;;;5.95;3.97;;;26.00;98.90;;;;;;4193344;28;20092;-63
2023/09/11 09:31:21;;;;;;;6.88;4.50;;;26.10;98.80;;;;;;4192388;28;20133;-63
2023/09/11 09:33:22;;;;;;;12.70;4.20;;;26.10;98.70;;;;;;4192532;28;20036;-63
2023/09/11 09:35:30;;;;;;;9.20;3.67;;;26.30;98.70;;;;;;4193129;28;20087;-64
2023/09/11 09:37:31;;;;;;;7.85;4.45;;;26.30;98.40;;;;;;4191546;28;20878;-63
2023/09/11 09:39:40;;;;;;;7.25;4.20;;;26.40;98.60;;;;;;4193117;28;20146;-63
2023/09/11 09:42:01;;;;;;;10.00;3.83;;;26.60;98.50;;;;;;4191881;28;20055;-63
2023/09/11 09:44:03;;;;;;;10.63;4.10;;;26.60;97.90;;;;;;4192340;28;20501;-65
2023/09/11 09:46:20;;;;;;;6.40;4.05;;;26.50;98.30;;;;;;4188468;28;20078;-65
2023/09/11 09:48:22;;;;;;;10.27;4.20;;;26.50;98.00;;;;;;4192896;28;20174;-65
2023/09/11 09:50:23;;;;;;;4.38;3.67;;;26.30;98.30;;;;;;4191459;28;20044;-62
2023/09/11 09:52:30;;;;;;;7.10;4.07;;;26.20;98.50;;;;;;4193374;28;20028;-62
2023/09/11 09:54:49;;;;;;;7.70;4.47;;;26.40;98.20;;;;;;4191812;28;20476;-62
2023/09/11 09:56:50;;;;;;;6.97;4.50;;;26.40;97.90;;;;;;4190417;28;20094;-65
2023/09/11 09:58:51;;;;;;;9.77;4.32;;;26.20;98.20;;;;;;4174954;28;20041;-63
2023/09/11 10:00:59;;;;;;;6.22;3.47;;;26.20;98.30;;;;;;4193578;28;20032;-62
2023/09/11 10:03:00;;;;;;;11.48;4.47;;;26.30;98.30;;;;;;4192986;28;20435;-62
2023/09/11 10:05:07;;;;;;;6.32;3.88;;;26.40;98.20;;;;;;4195595;28;20045;-63
2023/09/11 10:07:08;;;;;;;6.03;3.40;;;26.50;97.90;;;;;;4185870;28;20025;-61
2023/09/11 10:09:11;;;;;;;9.68;3.97;;;26.70;97.90;;;;;;4180023;28;20473;-61
2023/09/11 10:11:29;;;;;;;5.90;3.20;;;26.80;97.70;;;;;;4182271;28;20098;-63
2023/09/11 10:13:32;;;;;;;8.10;3.72;;;26.90;97.60;;;;;;4195353;28;20062;-59
2023/09/11 10:15:35;;;;;;;6.45;3.50;;;27.00;97.60;;;;;;4193926;28;20040;-62
2023/09/11 10:17:37;;;;;;;7.05;3.83;;;26.90;97.60;;;;;;4194504;28;20036;-60
2023/09/11 10:19:39;;;;;;;6.07;3.47;;;26.90;97.60;;;;;;4193547;28;20090;-61
2023/09/11 10:21:40;;;;;;;9.00;3.33;;;26.80;97.50;;;;;;4194158;28;20029;-59
2023/09/11 10:23:41;;;;;;;7.35;4.03;;;26.80;97.50;;;;;;4194229;28;20028;-60
2023/09/11 10:25:49;;;;;;;9.55;3.20;;;26.90;97.50;;;;;;4194737;28;21202;-60
2023/09/11 10:27:56;;;;;;;8.07;3.78;;;27.10;97.50;;;;;;4189839;28;20376;-61
2023/09/11 10:30:06;;;;;;;5.57;3.85;;;27.20;97.40;;;;;;4191071;28;20037;-60
2023/09/11 10:32:20;;;;;;;7.38;4.05;;;27.30;97.30;;;;;;4195183;28;20157;-61